In Rescue
 
Open Full Screen Window  High Contrast Mode
Wind Gusting 00 knots
07
September 21, 2020 10:45 PM CDT
Weather Information
Wind Direction
  220 °
Wind Speed
  07 kt (8 mph)
Wind Gust
  00 kt (0 mph)
Altimeter
30.03 in
Visibility
10 SM
Temperature
16° C
61° F
Dewpoint
13° C
55° F
Humidity
83%
Sky Condition
Clear
VFR

METAR KDYT 220345Z AUTO 22007KT 10SM CLR 16/13 A3003 RMK AO2

FAA Disclaimer: The data displayed is for advisory purposes only and is not to be used for flight planning or operations.